Cruise inventory

Unknown unknown Tartaruga 20091201

Cruise plan

Cruise Info. 
Ship name (ship code)Unknown unknown (ZZ99)
Cruise identifierTartaruga 20091201
Cruise period2009-12-01 — 2009-12-12
StatusCompleted
Port of departureSoyo Oil Terminal, Angola
Port of returnSoyo Oil Terminal, Angola
PurposeResearch
ObjectivesLong-term measurement programme Angola LNG Navigation Channel.
Ship used was Tartaruga, a 28-foot survey vessel owned by Angola LNG.
Chief scientistPaul Trapier Puckette (Evans-Hamilton, Inc)
Ocean/sea areas 
GeneralSouth East Atlantic Ocean (limit 20W)
SpecificCongo Channel
Data held at BODC 
Series/Profiles 
33  CTD/STD cast
Electrical conductivity of the water column
Vertical spatial coordinates
Salinity of the water column
Temperature of the water column
Date and time
Reference numbers
Electrical conductivity of the water column
Vertical spatial coordinates
Salinity of the water column
Temperature of the water column
Date and time
Reference numbers

BODC idDate/TimeLocationDoc.
17381562009-12-05 12:38  — 2009-12-05 12:40:09 6° 3' 44" S  12° 20' 38" E  View metadata report for BODC series reference number 1738156
17381682009-12-05 13:17:59  — 2009-12-05 13:20:35 6° 4' 55" S  12° 20' 13" E  View metadata report for BODC series reference number 1738168
17381812009-12-05 14:02:03  — 2009-12-05 14:04:20 6° 3' 44" S  12° 20' 38" E  View metadata report for BODC series reference number 1738181
17381932009-12-05 14:14:20  — 2009-12-05 14:17:02 6° 4' 55" S  12° 20' 13" E  View metadata report for BODC series reference number 1738193
17382002009-12-05 14:48:38  — 2009-12-05 14:50:41 6° 3' 44" S  12° 20' 38" E  View metadata report for BODC series reference number 1738200
17382122009-12-06 07:20:18  — 2009-12-06 07:23:16 6° 5' 28" S  12° 20' 2" E  View metadata report for BODC series reference number 1738212
17382242009-12-06 07:55:05  — 2009-12-06 07:57:03 6° 4' 31" S  12° 20' 22" E  View metadata report for BODC series reference number 1738224
17382362009-12-06 08:51:12  — 2009-12-06 08:53:40 6° 5' 28" S  12° 20' 2" E  View metadata report for BODC series reference number 1738236
17382482009-12-06 09:23:45  — 2009-12-06 09:27:02 6° 4' 31" S  12° 20' 22" E  View metadata report for BODC series reference number 1738248
17382612009-12-06 10:07:56  — 2009-12-06 10:10:38 6° 5' 5" S  12° 20' 10" E  View metadata report for BODC series reference number 1738261
17382732009-12-06 10:31:31  — 2009-12-06 10:33:59 6° 5' 28" S  12° 20' 2" E  View metadata report for BODC series reference number 1738273
17382852009-12-06 11:05:05  — 2009-12-06 11:07:54 6° 4' 31" S  12° 20' 22" E  View metadata report for BODC series reference number 1738285
17382972009-12-06 11:49:16  — 2009-12-06 11:51:09 6° 5' 5" S  12° 20' 10" E  View metadata report for BODC series reference number 1738297
17383042009-12-06 12:07:49  — 2009-12-06 12:09:48 6° 5' 28" S  12° 20' 2" E  View metadata report for BODC series reference number 1738304
17383162009-12-06 12:57:42  — 2009-12-06 12:59:50 6° 4' 31" S  12° 20' 22" E  View metadata report for BODC series reference number 1738316
17383282009-12-06 13:39:26  — 2009-12-06 13:41:08 6° 5' 5" S  12° 20' 10" E  View metadata report for BODC series reference number 1738328
17383412009-12-06 14:10:54  — 2009-12-06 14:12:40 6° 5' 28" S  12° 20' 2" E  View metadata report for BODC series reference number 1738341
17383532009-12-06 14:37:32  — 2009-12-06 14:39:10 6° 4' 31" S  12° 20' 22" E  View metadata report for BODC series reference number 1738353
17383652009-12-06 15:16:52  — 2009-12-06 15:18:25 6° 5' 5" S  12° 20' 10" E  View metadata report for BODC series reference number 1738365
17383772009-12-06 15:34:52  — 2009-12-06 15:36:33 6° 5' 28" S  12° 20' 2" E  View metadata report for BODC series reference number 1738377
17383892009-12-07 08:06:25  — 2009-12-07 08:08:07 6° 6' 44" S  12° 19' 33" E  View metadata report for BODC series reference number 1738389
17383902009-12-07 08:47:29  — 2009-12-07 08:48:46 6° 4' 51" S  12° 20' 12" E  View metadata report for BODC series reference number 1738390
17384082009-12-07 09:12:32  — 2009-12-07 09:13:59 6° 4' 56" S  12° 20' 12" E  View metadata report for BODC series reference number 1738408
17384212009-12-07 11:31:13  — 2009-12-07 11:32:22 6° 4' 47" S  12° 20' 15" E  View metadata report for BODC series reference number 1738421
17384332009-12-07 13:36  — 2009-12-07 13:37:18 6° 6' 31" S  12° 19' 38" E  View metadata report for BODC series reference number 1738433
17384452009-12-07 15:08:04  — 2009-12-07 15:09:12 6° 6' 48" S  12° 20' 26" E  View metadata report for BODC series reference number 1738445
17384572009-12-08 07:16:51  — 2009-12-08 07:18:05 6° 4' 56" S  12° 20' 12" E  View metadata report for BODC series reference number 1738457
17384692009-12-08 11:37:49  — 2009-12-08 11:38:55 6° 5' 19" S  12° 20' 4" E  View metadata report for BODC series reference number 1738469
17384702009-12-08 13:24:17  — 2009-12-08 13:25:26 6° 5' 47" S  12° 19' 54" E  View metadata report for BODC series reference number 1738470
17384822009-12-08 15:19:15  — 2009-12-08 15:20:31 6° 6' 24" S  12° 19' 42" E  View metadata report for BODC series reference number 1738482
17384942009-12-09 06:54  — 2009-12-09 06:55:38 6° 6' 34" S  12° 19' 36" E  View metadata report for BODC series reference number 1738494
17385012009-12-09 16:23:50  — 2009-12-09 16:24:46 6° 7' 10" S  12° 19' 13" E  View metadata report for BODC series reference number 1738501
17385132009-12-10 14:05:33  — 2009-12-10 14:06:43 6° 6' 41" S  12° 19' 35" E  View metadata report for BODC series reference number 1738513